Mini Explorer — FGD5276 — position and weather

sailwx.info

Track history (hours):
 
Tides and Currents Weather Stations Pressure Air Temp Water Temp Dewpoint Dewpoint Depression Visibility Wind Speed Wind Dir Waves Ship Positions

Mini Explorer

Last reported at 2015-Sep-07 20:12 UTC. Time now 2016-Feb-14 05:55 UTC.
Position N 47°40' W 003°27'.
Warning: this ship's position is months out of date.

Length 6 m.

Type: Sailing vessel. MMSI: 227568370.

Date/timePositionNaut miles runAvg speedWind from/ knotsBaromVisibWave heightAir tempDewpointWater temp
2015-Sep-07 20:12N 47°40' W 003°27'4 6.4
2015-Sep-07 19:33N 47°42' W 003°22'1 1.3
2015-Sep-07 18:32N 47°44' W 003°22'4 3.6
2015-Sep-07 17:33N 47°40' W 003°21'7 6.7
2015-Sep-07 16:33N 47°35' W 003°14'5 5.1
2015-Sep-07 15:33N 47°30' W 003°12'2 0.5
2015-Sep-07 12:04N 47°29' W 003°10'3 5.5
2015-Sep-07 11:33N 47°32' W 003°12'6 5.5
2015-Sep-07 10:33N 47°37' W 003°15'6 5.5
2015-Sep-07 09:32N 47°41' W 003°22'3 0.2
2015-Sep-06 17:22N 47°44' W 003°22'0 0.0
2015-Sep-05 17:31N 47°44' W 003°22'2 2.2
2015-Sep-05 16:33N 47°41' W 003°22'5 5.4
2015-Sep-05 15:33N 47°36' W 003°24'4 1.8
2015-Sep-05 13:13N 47°40' W 003°26'2 3.0
2015-Sep-05 12:33N 47°41' W 003°24'3 2.8
2015-Sep-05 11:32N 47°44' W 003°22'0 0.0
2015-Sep-05 10:32N 47°44' W 003°22'0 0.0
2015-Sep-05 09:32N 47°44' W 003°22'0 0.0
2015-Sep-05 08:31N 47°44' W 003°22'0 0.0
2015-Sep-04 17:26N 47°44' W 003°22'0 0.0
2015-Sep-04 16:32N 47°44' W 003°22'0 0.0
2015-Sep-03 16:10N 47°44' W 003°22'0 0.0
2015-Sep-03 15:28N 47°44' W 003°22'0 0.0
2015-Sep-03 14:31N 47°44' W 003°22'0 0.0
2015-Sep-03 13:31N 47°44' W 003°22'1 1.3
2015-Sep-03 12:32N 47°42' W 003°22'2 2.3
2015-Sep-03 11:29N 47°40' W 003°24'  
Track history (hours):
 
Tides and Currents Weather Stations Pressure Air Temp Water Temp Dewpoint Dewpoint Depression Visibility Wind Speed Wind Dir Waves Ship Positions

Mini Explorer

Last reported at 2015-Sep-07 20:12 UTC. Time now 2016-Feb-14 05:55 UTC.
Position N 47°40' W 003°27'.
Warning: this ship's position is months out of date.

Length 6 m.

Type: Sailing vessel. MMSI: 227568370.

Date/timePositionNaut miles runAvg speedWind from/ knotsBaromVisibWave heightAir tempDewpointWater temp
2015-Sep-07 20:12N 47°40' W 003°27'4 6.4
2015-Sep-07 19:33N 47°42' W 003°22'1 1.3
2015-Sep-07 18:32N 47°44' W 003°22'4 3.6
2015-Sep-07 17:33N 47°40' W 003°21'7 6.7
2015-Sep-07 16:33N 47°35' W 003°14'5 5.1
2015-Sep-07 15:33N 47°30' W 003°12'2 0.5
2015-Sep-07 12:04N 47°29' W 003°10'3 5.5
2015-Sep-07 11:33N 47°32' W 003°12'6 5.5
2015-Sep-07 10:33N 47°37' W 003°15'6 5.5
2015-Sep-07 09:32N 47°41' W 003°22'3 0.2
2015-Sep-06 17:22N 47°44' W 003°22'0 0.0
2015-Sep-05 17:31N 47°44' W 003°22'2 2.2
2015-Sep-05 16:33N 47°41' W 003°22'5 5.4
2015-Sep-05 15:33N 47°36' W 003°24'4 1.8
2015-Sep-05 13:13N 47°40' W 003°26'2 3.0
2015-Sep-05 12:33N 47°41' W 003°24'3 2.8
2015-Sep-05 11:32N 47°44' W 003°22'0 0.0
2015-Sep-05 10:32N 47°44' W 003°22'0 0.0
2015-Sep-05 09:32N 47°44' W 003°22'0 0.0
2015-Sep-05 08:31N 47°44' W 003°22'0 0.0
2015-Sep-04 17:26N 47°44' W 003°22'0 0.0
2015-Sep-04 16:32N 47°44' W 003°22'0 0.0
2015-Sep-03 16:10N 47°44' W 003°22'0 0.0
2015-Sep-03 15:28N 47°44' W 003°22'0 0.0
2015-Sep-03 14:31N 47°44' W 003°22'0 0.0
2015-Sep-03 13:31N 47°44' W 003°22'1 1.3
2015-Sep-03 12:32N 47°42' W 003°22'2 2.3
2015-Sep-03 11:29N 47°40' W 003°24'  

Dump ship's entire track history